createdAt,value
2018-01-23T00:00:42.565Z,4.90
2018-01-23T00:03:10.799Z,4.90
2018-01-23T00:05:38.272Z,4.90
2018-01-23T00:08:05.748Z,4.90
2018-01-23T00:10:33.979Z,4.90
2018-01-23T00:13:01.449Z,4.90
2018-01-23T00:15:28.919Z,4.90
2018-01-23T00:17:56.412Z,4.80
2018-01-23T00:20:23.974Z,4.80
2018-01-23T00:22:51.498Z,4.80
2018-01-23T00:25:18.961Z,4.80
2018-01-23T00:27:46.441Z,4.80
2018-01-23T00:30:14.676Z,4.80
2018-01-23T00:32:42.155Z,4.80
2018-01-23T00:35:10.447Z,4.70
2018-01-23T00:37:38.691Z,4.70
2018-01-23T00:40:06.177Z,4.70
2018-01-23T00:42:34.449Z,4.70
2018-01-23T00:45:02.678Z,4.70
2018-01-23T00:47:30.159Z,4.70
2018-01-23T00:49:57.640Z,4.70
2018-01-23T00:52:25.883Z,4.70
2018-01-23T00:54:53.343Z,4.70
2018-01-23T00:57:20.847Z,4.70
2018-01-23T00:59:48.316Z,4.70
2018-01-23T01:02:15.787Z,4.70
2018-01-23T01:04:43.263Z,4.70
2018-01-23T01:07:10.715Z,4.70
2018-01-23T01:09:38.192Z,4.70
2018-01-23T01:12:05.648Z,4.70
2018-01-23T01:14:33.129Z,4.70
2018-01-23T01:17:01.369Z,4.70
2018-01-23T01:19:28.848Z,4.70
2018-01-23T01:21:56.316Z,4.70
2018-01-23T01:24:23.802Z,4.70
2018-01-23T01:26:51.257Z,4.70
2018-01-23T01:29:18.795Z,4.70
2018-01-23T01:31:46.255Z,4.70
2018-01-23T01:34:14.501Z,4.70
2018-01-23T01:36:41.989Z,4.70
2018-01-23T01:39:10.241Z,4.70
2018-01-23T01:41:37.719Z,4.70
2018-01-23T01:44:05.188Z,4.70
2018-01-23T01:46:33.419Z,4.70
2018-01-23T01:49:00.883Z,4.70
2018-01-23T01:51:28.343Z,4.70
2018-01-23T01:53:55.829Z,4.70
2018-01-23T01:56:24.076Z,4.70
2018-01-23T01:58:52.144Z,4.70
2018-01-23T02:01:19.623Z,4.70
2018-01-23T02:03:47.104Z,4.70
2018-01-23T02:06:14.583Z,4.70
2018-01-23T02:08:42.089Z,4.70
2018-01-23T02:11:09.562Z,4.70
2018-01-23T02:13:37.832Z,4.60
2018-01-23T02:16:06.056Z,4.60
2018-01-23T02:18:33.528Z,4.60
2018-01-23T02:21:01.015Z,4.60
2018-01-23T02:23:28.513Z,4.60
2018-01-23T02:25:55.970Z,4.60
2018-01-23T02:28:23.450Z,4.60
2018-01-23T02:30:50.921Z,4.60
2018-01-23T02:33:18.412Z,4.60
2018-01-23T02:35:45.886Z,4.60
2018-01-23T02:38:14.119Z,4.60
2018-01-23T02:40:41.591Z,4.50
2018-01-23T02:43:09.059Z,4.50
2018-01-23T02:45:36.539Z,4.50
2018-01-23T02:48:04.258Z,4.50
2018-01-23T02:50:31.728Z,4.50
2018-01-23T02:52:59.200Z,4.50
2018-01-23T02:55:27.452Z,4.50
2018-01-23T02:57:54.932Z,4.50
2018-01-23T03:00:23.190Z,4.50
2018-01-23T03:02:50.664Z,4.50
2018-01-23T03:05:19.347Z,4.50
2018-01-23T03:07:46.803Z,4.50
2018-01-23T03:10:14.279Z,4.50
2018-01-23T03:12:42.517Z,4.50
2018-01-23T03:15:09.999Z,4.50
2018-01-23T03:17:38.240Z,4.40
2018-01-23T03:20:05.758Z,4.40
2018-01-23T03:22:33.171Z,4.40
2018-01-23T03:25:01.416Z,4.40
2018-01-23T03:27:28.880Z,4.40
2018-01-23T03:29:56.471Z,4.40
2018-01-23T03:32:23.928Z,4.40
2018-01-23T03:34:51.393Z,4.40
2018-01-23T03:37:18.855Z,4.40
2018-01-23T03:39:46.324Z,4.40
2018-01-23T03:42:14.580Z,4.40
2018-01-23T03:44:42.148Z,4.40
2018-01-23T03:47:09.625Z,4.40
2018-01-23T03:49:37.857Z,4.30
2018-01-23T03:52:06.116Z,4.40
2018-01-23T03:54:33.586Z,4.40
2018-01-23T03:57:01.055Z,4.40
2018-01-23T03:59:28.535Z,4.40
2018-01-23T04:01:56.788Z,4.40
2018-01-23T04:04:24.253Z,4.30
2018-01-23T04:06:53.243Z,4.40
2018-01-23T04:09:22.214Z,4.30
2018-01-23T04:11:49.709Z,4.30
2018-01-23T04:14:17.952Z,4.30
2018-01-23T04:16:45.441Z,4.30
2018-01-23T04:19:12.899Z,4.30
2018-01-23T04:21:41.144Z,4.30
2018-01-23T04:24:08.624Z,4.30
2018-01-23T04:26:36.125Z,4.30
2018-01-23T04:29:03.584Z,4.30
2018-01-23T04:31:31.072Z,4.30
2018-01-23T04:33:58.545Z,4.30
2018-01-23T04:36:26.025Z,4.30
2018-01-23T04:38:54.261Z,4.20
2018-01-23T04:41:21.757Z,4.20
2018-01-23T04:43:49.997Z,4.30
2018-01-23T04:46:17.480Z,4.20
2018-01-23T04:48:44.933Z,4.20
2018-01-23T04:51:12.425Z,4.20
2018-01-23T04:53:39.998Z,4.20
2018-01-23T04:56:07.453Z,4.20
2018-01-23T04:58:34.945Z,4.20
2018-01-23T05:01:02.419Z,4.20
2018-01-23T05:03:29.914Z,4.20
2018-01-23T05:05:57.392Z,4.20
2018-01-23T05:08:24.872Z,4.20
2018-01-23T05:10:52.334Z,4.20
2018-01-23T05:13:19.929Z,4.20
2018-01-23T05:15:49.188Z,4.20
2018-01-23T05:18:16.771Z,4.20
2018-01-23T05:20:44.227Z,4.20
2018-01-23T05:23:11.703Z,4.20
2018-01-23T05:25:39.946Z,4.20
2018-01-23T05:28:07.434Z,4.20
2018-01-23T05:30:35.669Z,4.10
2018-01-23T05:33:03.135Z,4.10
2018-01-23T05:35:30.627Z,4.20
2018-01-23T05:37:58.860Z,4.20
2018-01-23T05:40:26.344Z,4.20
2018-01-23T05:42:53.808Z,4.20
2018-01-23T05:45:21.273Z,4.10
2018-01-23T05:47:49.530Z,4.20
2018-01-23T05:50:18.429Z,4.20
2018-01-23T05:52:45.907Z,4.20
2018-01-23T05:55:14.139Z,4.20
2018-01-23T05:57:41.623Z,4.20
2018-01-23T06:00:09.106Z,4.20
2018-01-23T06:02:37.350Z,4.20
2018-01-23T06:05:05.605Z,4.20
2018-01-23T06:07:33.076Z,4.20
2018-01-23T06:10:00.555Z,4.20
2018-01-23T06:12:31.196Z,4.20
2018-01-23T06:14:59.466Z,4.10
2018-01-23T06:17:27.712Z,4.20
2018-01-23T06:19:55.188Z,4.10
2018-01-23T06:22:23.432Z,4.20
2018-01-23T06:24:50.923Z,4.10
2018-01-23T06:27:18.399Z,4.20
2018-01-23T06:29:46.655Z,4.10
2018-01-23T06:32:14.121Z,4.10
2018-01-23T06:34:42.385Z,4.10
2018-01-23T06:37:09.875Z,4.10
2018-01-23T06:39:38.134Z,4.10
2018-01-23T06:42:06.379Z,4.10
2018-01-23T06:44:34.768Z,4.10
2018-01-23T06:47:03.003Z,4.10
2018-01-23T06:49:30.487Z,4.10
2018-01-23T06:51:57.952Z,4.10
2018-01-23T06:54:25.431Z,4.10
2018-01-23T06:56:52.892Z,4.00
2018-01-23T06:59:21.144Z,4.00
2018-01-23T07:01:50.137Z,4.00
2018-01-23T07:04:17.608Z,4.00
2018-01-23T07:06:45.618Z,4.00
2018-01-23T07:09:13.109Z,4.00
2018-01-23T07:11:40.565Z,4.00
2018-01-23T07:14:08.043Z,4.00
2018-01-23T07:16:35.575Z,4.00
2018-01-23T07:19:03.263Z,4.00
2018-01-23T07:21:32.268Z,3.90
2018-01-23T07:23:59.734Z,3.90
2018-01-23T07:26:27.970Z,4.00
2018-01-23T07:28:55.453Z,3.90
2018-01-23T07:31:22.928Z,4.00
2018-01-23T07:33:51.160Z,4.00
2018-01-23T07:36:18.643Z,4.00
2018-01-23T07:38:46.872Z,4.10
2018-01-23T07:41:14.378Z,4.10
2018-01-23T07:43:41.858Z,4.10
2018-01-23T07:46:10.119Z,4.10
2018-01-23T07:48:37.601Z,4.10
2018-01-23T07:51:05.860Z,4.10
2018-01-23T07:53:34.095Z,4.10
2018-01-23T07:56:01.592Z,4.10
2018-01-23T07:58:29.061Z,4.20
2018-01-23T08:00:57.322Z,4.20
2018-01-23T08:03:24.789Z,4.20
2018-01-23T08:05:53.035Z,4.20
2018-01-23T08:08:20.520Z,4.20
2018-01-23T08:10:48.775Z,4.20
2018-01-23T08:13:16.239Z,4.20
2018-01-23T08:15:45.243Z,4.20
2018-01-23T08:18:13.483Z,4.20
2018-01-23T08:20:40.964Z,4.20
2018-01-23T08:23:09.197Z,4.30
2018-01-23T08:25:36.676Z,4.30
2018-01-23T08:28:04.135Z,4.30
2018-01-23T08:30:31.620Z,4.30
2018-01-23T08:32:59.879Z,4.40
2018-01-23T08:35:27.377Z,4.30
2018-01-23T08:37:54.915Z,4.30
2018-01-23T08:40:23.168Z,4.40
2018-01-23T08:42:50.660Z,4.40
2018-01-23T08:45:18.896Z,4.40
2018-01-23T08:47:46.364Z,4.40
2018-01-23T08:50:13.839Z,4.50
2018-01-23T08:52:41.317Z,4.50
2018-01-23T08:55:09.552Z,4.50
2018-01-23T08:57:37.051Z,4.50
2018-01-23T09:00:05.291Z,4.50
2018-01-23T09:02:32.779Z,4.50
2018-01-23T09:05:01.011Z,4.60
2018-01-23T09:07:28.496Z,4.60
2018-01-23T09:09:55.968Z,4.60
2018-01-23T09:12:24.204Z,4.70
2018-01-23T09:14:51.695Z,4.60
2018-01-23T09:17:19.956Z,4.70
2018-01-23T09:19:47.429Z,4.70
2018-01-23T09:22:15.690Z,4.70
2018-01-23T09:24:43.140Z,4.70
2018-01-23T09:27:11.411Z,4.80
2018-01-23T09:29:38.880Z,4.80
2018-01-23T09:32:06.370Z,4.80
2018-01-23T09:34:33.840Z,4.90
2018-01-23T09:37:01.312Z,5.00
2018-01-23T09:39:28.796Z,5.00
2018-01-23T09:41:56.284Z,5.00
2018-01-23T09:44:24.523Z,5.10
2018-01-23T09:46:52.011Z,5.00
2018-01-23T09:49:19.477Z,5.10
2018-01-23T09:51:47.746Z,5.20
2018-01-23T09:54:15.980Z,5.20
2018-01-23T09:56:43.444Z,5.20
2018-01-23T09:59:10.919Z,5.20
2018-01-23T10:01:39.904Z,5.30
2018-01-23T10:04:08.924Z,5.30
2018-01-23T10:06:37.157Z,5.40
2018-01-23T10:09:04.668Z,5.30
2018-01-23T10:11:32.893Z,5.40
2018-01-23T10:14:00.365Z,5.40
2018-01-23T10:16:27.849Z,5.50
2018-01-23T10:18:56.089Z,5.60
2018-01-23T10:21:23.578Z,5.60
2018-01-23T10:23:51.661Z,5.60
2018-01-23T10:26:19.892Z,5.70
2018-01-23T10:28:47.376Z,5.70
2018-01-23T10:31:14.831Z,5.70
2018-01-23T10:33:43.124Z,5.80
2018-01-23T10:36:11.365Z,5.80
2018-01-23T10:38:38.832Z,5.80
2018-01-23T10:41:06.295Z,5.80
2018-01-23T10:43:35.292Z,5.90
2018-01-23T10:46:02.817Z,5.80
2018-01-23T10:48:30.280Z,5.90
2018-01-23T10:50:57.756Z,5.90
2018-01-23T10:53:25.259Z,6.00
2018-01-23T10:55:52.714Z,6.00
2018-01-23T10:58:20.208Z,6.10
2018-01-23T11:00:53.350Z,6.20
2018-01-23T11:03:21.593Z,6.30
2018-01-23T11:05:49.048Z,6.30
2018-01-23T11:08:16.527Z,6.30
2018-01-23T11:10:44.777Z,6.50
2018-01-23T11:13:12.250Z,6.40
2018-01-23T11:15:41.232Z,6.50
2018-01-23T11:18:09.515Z,6.50
2018-01-23T11:20:36.992Z,6.50
2018-01-23T11:23:05.235Z,6.60
2018-01-23T11:25:33.473Z,6.50
2018-01-23T11:28:00.949Z,6.60
2018-01-23T11:30:28.427Z,6.70
2018-01-23T11:32:55.885Z,6.60
2018-01-23T11:35:23.415Z,6.70
2018-01-23T11:37:50.877Z,6.70
2018-01-23T11:40:18.363Z,6.80
2018-01-23T11:42:45.828Z,7.00
2018-01-23T11:45:13.304Z,7.10
2018-01-23T11:47:41.537Z,7.00
2018-01-23T11:50:09.004Z,7.00
2018-01-23T11:52:36.475Z,7.00
2018-01-23T11:55:03.941Z,7.00
2018-01-23T11:57:31.410Z,7.00
2018-01-23T11:59:59.651Z,7.20
2018-01-23T12:02:27.130Z,7.20
2018-01-23T12:04:54.634Z,7.40
2018-01-23T12:07:22.103Z,7.40
2018-01-23T12:09:49.596Z,7.30
2018-01-23T12:12:17.060Z,7.20
2018-01-23T12:14:44.593Z,7.30
2018-01-23T12:17:12.012Z,7.30
2018-01-23T12:19:39.492Z,7.20
2018-01-23T12:22:06.953Z,7.20
2018-01-23T12:24:34.443Z,7.10
2018-01-23T12:27:01.922Z,7.00
2018-01-23T12:29:30.241Z,7.00
2018-01-23T12:31:58.453Z,7.00
2018-01-23T12:34:25.940Z,7.00
2018-01-23T12:36:54.212Z,7.00
2018-01-23T12:39:22.456Z,7.00
2018-01-23T12:41:49.932Z,6.90
2018-01-23T12:44:18.239Z,6.90
2018-01-23T12:46:46.731Z,6.80
2018-01-23T12:49:14.251Z,6.80
2018-01-23T12:51:42.491Z,6.90
2018-01-23T12:54:09.977Z,6.80
2018-01-23T12:56:37.447Z,6.90
2018-01-23T12:59:05.675Z,6.90
2018-01-23T13:01:33.160Z,7.00
2018-01-23T13:04:00.649Z,6.90
2018-01-23T13:06:28.885Z,6.90
2018-01-23T13:08:56.346Z,6.90
2018-01-23T13:11:23.832Z,6.90
2018-01-23T13:13:52.070Z,7.00
2018-01-23T13:16:19.556Z,7.00
2018-01-23T13:19:03.615Z,7.10
2018-01-23T13:21:31.865Z,7.20
2018-01-23T13:23:59.362Z,7.10
2018-01-23T13:26:26.841Z,7.10
2018-01-23T13:28:54.332Z,7.10
2018-01-23T13:31:21.840Z,7.00
2018-01-23T13:33:49.304Z,7.00
2018-01-23T13:36:16.786Z,7.00
2018-01-23T13:38:44.252Z,7.00
2018-01-23T13:41:11.737Z,7.00
2018-01-23T13:43:39.225Z,7.00
2018-01-23T13:46:06.719Z,7.00
2018-01-23T13:48:35.153Z,7.00
2018-01-23T13:51:04.337Z,7.00
2018-01-23T13:53:33.317Z,7.00
2018-01-23T13:56:00.792Z,7.00
2018-01-23T13:58:29.022Z,7.10
2018-01-23T14:00:56.495Z,7.10
2018-01-23T14:03:24.719Z,7.30
2018-01-23T14:05:52.204Z,7.20
2018-01-23T14:08:19.675Z,7.20
2018-01-23T14:10:47.205Z,7.20
2018-01-23T14:13:14.676Z,7.20
2018-01-23T14:15:42.189Z,7.20
2018-01-23T14:18:10.426Z,7.10
2018-01-23T14:20:37.911Z,7.10
2018-01-23T14:23:06.314Z,7.00
2018-01-23T14:25:33.796Z,7.00
2018-01-23T14:28:01.272Z,7.00
2018-01-23T14:30:28.749Z,6.90
2018-01-23T14:32:56.221Z,6.90
2018-01-23T14:35:24.636Z,6.80
2018-01-23T14:37:52.143Z,6.80
2018-01-23T14:40:19.595Z,6.80
2018-01-23T14:42:47.074Z,6.80
2018-01-23T14:45:14.543Z,6.80
2018-01-23T14:47:42.819Z,6.80
2018-01-23T14:50:11.054Z,6.70
2018-01-23T14:52:38.521Z,6.70
2018-01-23T14:55:05.979Z,6.70
2018-01-23T14:57:33.478Z,6.70
2018-01-23T15:00:01.732Z,6.60
2018-01-23T15:02:29.261Z,6.60
2018-01-23T15:04:56.731Z,6.60
2018-01-23T15:07:24.223Z,6.50
2018-01-23T15:09:52.483Z,6.50
2018-01-23T15:12:20.147Z,6.50
2018-01-23T15:14:47.627Z,6.50
2018-01-23T15:17:15.861Z,6.40
2018-01-23T15:19:43.328Z,6.40
2018-01-23T15:22:10.824Z,6.30
2018-01-23T15:24:39.099Z,6.30
2018-01-23T15:27:07.327Z,6.30
2018-01-23T15:29:34.831Z,6.30
2018-01-23T15:32:03.073Z,6.20
2018-01-23T15:34:30.544Z,6.20
2018-01-23T15:36:58.030Z,6.20
2018-01-23T15:39:25.508Z,6.20
2018-01-23T15:41:53.743Z,6.20
2018-01-23T15:44:21.992Z,6.20
2018-01-23T15:46:49.479Z,6.20
2018-01-23T15:49:17.715Z,6.10
2018-01-23T15:51:45.188Z,6.10
2018-01-23T15:54:14.185Z,6.10
2018-01-23T15:56:43.160Z,6.10
2018-01-23T15:59:10.651Z,6.10
2018-01-23T16:01:38.155Z,6.10
2018-01-23T16:04:05.657Z,6.10
2018-01-23T16:06:33.141Z,6.10
2018-01-23T16:09:00.641Z,6.00
2018-01-23T16:11:28.128Z,6.00
2018-01-23T16:13:56.400Z,6.00
2018-01-23T16:16:24.597Z,6.00
2018-01-23T16:18:52.851Z,6.00
2018-01-23T16:21:20.337Z,6.00
2018-01-23T16:23:48.591Z,6.00
2018-01-23T16:26:16.067Z,5.90
2018-01-23T16:28:44.333Z,5.90
2018-01-23T16:31:12.576Z,5.90
2018-01-23T16:33:40.075Z,5.90
2018-01-23T16:36:08.319Z,5.90
2018-01-23T16:38:35.812Z,5.90
2018-01-23T16:41:04.048Z,5.90
2018-01-23T16:43:31.512Z,5.90
2018-01-23T16:45:59.776Z,5.80
2018-01-23T16:48:27.256Z,5.80
2018-01-23T16:50:55.540Z,5.80
2018-01-23T16:53:23.018Z,5.80
2018-01-23T16:55:51.311Z,5.80
2018-01-23T16:58:18.807Z,5.80
2018-01-23T17:00:46.289Z,5.70
2018-01-23T17:03:13.757Z,5.70
2018-01-23T17:05:42.004Z,5.70
2018-01-23T17:08:09.475Z,5.70
2018-01-23T17:10:36.959Z,5.70
2018-01-23T17:13:05.249Z,5.60
2018-01-23T17:15:34.211Z,5.50
2018-01-23T17:18:02.440Z,5.50
2018-01-23T17:20:29.914Z,5.50
2018-01-23T17:22:57.415Z,5.50
2018-01-23T17:25:24.880Z,5.40
2018-01-23T17:27:53.263Z,5.30
2018-01-23T17:30:20.794Z,5.30
2018-01-23T17:32:48.274Z,5.30
2018-01-23T17:35:15.790Z,5.20
2018-01-23T17:37:43.299Z,5.20
2018-01-23T17:40:10.785Z,5.10
2018-01-23T17:42:38.309Z,5.10
2018-01-23T17:45:06.543Z,5.00
2018-01-23T17:47:34.013Z,5.00
2018-01-23T17:50:01.506Z,4.90
2018-01-23T17:52:29.738Z,4.90
2018-01-23T17:55:00.576Z,4.90
2018-01-23T17:57:28.059Z,4.80
2018-01-23T17:59:56.314Z,4.80
2018-01-23T18:02:24.590Z,4.80
2018-01-23T18:04:52.053Z,4.70
2018-01-23T18:07:20.320Z,4.70
2018-01-23T18:09:47.785Z,4.70
2018-01-23T18:12:15.302Z,4.70
2018-01-23T18:14:43.689Z,4.70
2018-01-23T18:17:11.209Z,4.60
2018-01-23T18:19:38.719Z,4.60
2018-01-23T18:22:06.202Z,4.60
2018-01-23T18:24:34.527Z,4.50
2018-01-23T18:27:02.024Z,4.50
2018-01-23T18:29:29.535Z,4.50
2018-01-23T18:31:57.011Z,4.50
2018-01-23T18:34:24.556Z,4.50
2018-01-23T18:36:52.074Z,4.40
2018-01-23T18:39:20.376Z,4.40
2018-01-23T18:41:47.910Z,4.40
2018-01-23T18:44:15.440Z,4.40
2018-01-23T18:46:42.925Z,4.40
2018-01-23T18:49:11.234Z,4.40
2018-01-23T18:51:38.773Z,4.30
2018-01-23T18:54:07.030Z,4.40
2018-01-23T18:56:34.734Z,4.30
2018-01-23T18:59:02.220Z,4.30
2018-01-23T19:01:29.694Z,4.30
2018-01-23T19:03:57.810Z,4.30
2018-01-23T19:06:25.331Z,4.30
2018-01-23T19:08:54.346Z,4.30
2018-01-23T19:11:22.589Z,4.30
2018-01-23T19:13:50.084Z,4.30
2018-01-23T19:16:18.371Z,4.40
2018-01-23T19:18:46.675Z,4.30
2018-01-23T19:21:14.146Z,4.30
2018-01-23T19:23:41.699Z,4.40
2018-01-23T19:26:09.215Z,4.40
2018-01-23T19:28:37.459Z,4.40
2018-01-23T19:31:05.031Z,4.40
2018-01-23T19:33:32.566Z,4.40
2018-01-23T19:36:00.087Z,4.40
2018-01-23T19:38:27.581Z,4.40
2018-01-23T19:40:55.055Z,4.40
2018-01-23T19:43:22.552Z,4.40
2018-01-23T19:45:50.086Z,4.40
2018-01-23T19:48:17.620Z,4.50
2018-01-23T19:50:45.132Z,4.50
2018-01-23T19:53:12.691Z,4.50
2018-01-23T19:55:41.000Z,4.50
2018-01-23T19:58:08.564Z,4.50
2018-01-23T20:00:36.051Z,4.50
2018-01-23T20:03:03.595Z,4.50
2018-01-23T20:05:31.069Z,4.50
2018-01-23T20:07:58.651Z,4.50
2018-01-23T20:10:26.895Z,4.50
2018-01-23T20:12:54.484Z,4.50
2018-01-23T20:15:22.739Z,4.50
2018-01-23T20:17:50.265Z,4.50
2018-01-23T20:20:17.774Z,4.50
2018-01-23T20:22:46.008Z,4.40
2018-01-23T20:25:13.499Z,4.40
2018-01-23T20:27:41.825Z,4.50
2018-01-23T20:30:09.301Z,4.40
2018-01-23T20:32:37.742Z,4.40
2018-01-23T20:35:05.997Z,4.40
2018-01-23T20:37:35.008Z,4.30
2018-01-23T20:40:04.024Z,4.30
2018-01-23T20:42:31.500Z,4.30
2018-01-23T20:44:59.050Z,4.30
2018-01-23T20:47:26.590Z,4.30
2018-01-23T20:49:54.129Z,4.30
2018-01-23T20:52:22.536Z,4.30
2018-01-23T20:54:50.094Z,4.30
2018-01-23T20:57:17.575Z,4.30
2018-01-23T20:59:45.054Z,4.30
2018-01-23T21:02:12.600Z,4.40
2018-01-23T21:04:40.124Z,4.40
2018-01-23T21:07:07.605Z,4.40
2018-01-23T21:09:36.117Z,4.40
2018-01-23T21:12:03.588Z,4.40
2018-01-23T21:14:32.935Z,4.40
2018-01-23T21:17:00.414Z,4.40
2018-01-23T21:19:27.890Z,4.50
2018-01-23T21:21:56.193Z,4.40
2018-01-23T21:24:25.493Z,4.40
2018-01-23T21:26:53.803Z,4.40
2018-01-23T21:29:21.350Z,4.40
2018-01-23T21:31:48.899Z,4.40
2018-01-23T21:34:17.223Z,4.40
2018-01-23T21:36:44.752Z,4.40
2018-01-23T21:39:12.302Z,4.40
2018-01-23T21:41:39.815Z,4.40
2018-01-23T21:44:07.383Z,4.40
2018-01-23T21:46:34.887Z,4.40
2018-01-23T21:49:03.125Z,4.40
2018-01-23T21:51:30.661Z,4.30
2018-01-23T21:53:58.169Z,4.40
2018-01-23T21:56:25.662Z,4.40
2018-01-23T21:58:53.169Z,4.40
2018-01-23T22:01:21.462Z,4.40
2018-01-23T22:03:48.982Z,4.40
2018-01-23T22:06:16.469Z,4.40
2018-01-23T22:08:43.986Z,4.50
2018-01-23T22:11:11.466Z,4.50
2018-01-23T22:13:38.950Z,4.50
2018-01-23T22:16:07.308Z,4.50
2018-01-23T22:18:35.589Z,4.40
2018-01-23T22:21:03.079Z,4.40
2018-01-23T22:23:30.557Z,4.40
2018-01-23T22:25:58.047Z,4.40
2018-01-23T22:28:26.313Z,4.40
2018-01-23T22:30:53.794Z,4.40
2018-01-23T22:33:22.046Z,4.40
2018-01-23T22:35:50.298Z,4.40
2018-01-23T22:38:18.166Z,4.40
2018-01-23T22:40:45.658Z,4.40
2018-01-23T22:43:13.242Z,4.40
2018-01-23T22:45:41.516Z,4.40
2018-01-23T22:48:09.770Z,4.40
2018-01-23T22:50:38.009Z,4.40
2018-01-23T22:53:05.497Z,4.30
2018-01-23T22:55:32.988Z,4.40
2018-01-23T22:58:01.215Z,4.40
2018-01-23T23:00:28.700Z,4.40
2018-01-23T23:02:56.935Z,4.50
2018-01-23T23:05:24.428Z,4.40
2018-01-23T23:07:51.915Z,4.50
2018-01-23T23:10:20.177Z,4.50
2018-01-23T23:12:48.436Z,4.40
2018-01-23T23:15:15.897Z,4.40
2018-01-23T23:17:44.140Z,4.50
2018-01-23T23:20:11.623Z,4.50
2018-01-23T23:22:39.109Z,4.50
2018-01-23T23:25:07.332Z,4.50
2018-01-23T23:27:34.839Z,4.50
2018-01-23T23:30:03.092Z,4.50
2018-01-23T23:32:30.651Z,4.50
2018-01-23T23:34:58.125Z,4.50
2018-01-23T23:37:26.368Z,4.50
2018-01-23T23:39:53.825Z,4.50
2018-01-23T23:42:21.319Z,4.50
2018-01-23T23:44:49.551Z,4.50
2018-01-23T23:47:17.032Z,4.50
2018-01-23T23:49:45.255Z,4.60
2018-01-23T23:52:12.745Z,4.50
2018-01-23T23:54:40.206Z,4.60
2018-01-23T23:57:07.675Z,4.60
2018-01-23T23:59:35.151Z,4.50
